createdAt,value
2019-04-21T00:00:45.623Z,16.30
2019-04-21T00:03:26.083Z,16.20
2019-04-21T00:06:12.060Z,16.10
2019-04-21T00:08:50.585Z,16.00
2019-04-21T00:11:22.610Z,15.90
2019-04-21T00:13:46.700Z,15.60
2019-04-21T00:16:14.151Z,15.40
2019-04-21T00:19:13.885Z,15.20
2019-04-21T00:21:47.812Z,15.00
2019-04-21T00:24:29.005Z,14.80
2019-04-21T00:27:05.227Z,14.60
2019-04-21T00:29:42.531Z,14.40
2019-04-21T00:32:16.284Z,14.30
2019-04-21T00:34:34.695Z,14.10
2019-04-21T00:37:18.025Z,13.90
2019-04-21T00:40:05.951Z,13.90
2019-04-21T00:42:37.646Z,13.70
2019-04-21T00:45:08.081Z,13.60
2019-04-21T00:47:46.341Z,13.50
2019-04-21T00:50:25.121Z,13.40
2019-04-21T00:53:05.506Z,13.40
2019-04-21T00:56:04.513Z,13.30
2019-04-21T00:58:26.878Z,13.20
2019-04-21T01:00:58.562Z,13.20
2019-04-21T01:03:32.304Z,13.20
2019-04-21T01:06:03.384Z,13.10
2019-04-21T01:08:44.090Z,13.00
2019-04-21T01:11:18.862Z,12.90
2019-04-21T01:13:52.717Z,12.90
2019-04-21T01:16:28.649Z,12.80
2019-04-21T01:19:01.971Z,12.70
2019-04-21T01:21:14.236Z,12.70
2019-04-21T01:23:48.642Z,12.60
2019-04-21T01:26:37.259Z,12.50
2019-04-21T01:29:14.469Z,12.40
2019-04-21T01:31:48.032Z,12.40
2019-04-21T01:34:28.849Z,12.30
2019-04-21T01:37:01.479Z,12.20
2019-04-21T01:39:41.385Z,12.20
2019-04-21T01:42:12.642Z,12.20
2019-04-21T01:44:46.155Z,12.10
2019-04-21T01:47:15.819Z,12.00
2019-04-21T01:49:44.173Z,11.80
2019-04-21T01:52:38.446Z,11.80
2019-04-21T01:55:22.569Z,11.80
2019-04-21T01:57:59.381Z,11.60
2019-04-21T02:01:03.573Z,11.60
2019-04-21T02:06:18.524Z,11.60
2019-04-21T02:08:49.096Z,11.50
2019-04-21T02:11:47.045Z,11.50
2019-04-21T02:14:05.421Z,11.50
2019-04-21T02:16:37.673Z,11.50
2019-04-21T02:19:04.466Z,11.50
2019-04-21T02:21:39.237Z,11.50
2019-04-21T02:24:31.656Z,11.50
2019-04-21T02:26:53.872Z,11.40
2019-04-21T02:29:37.015Z,11.30
2019-04-21T02:32:25.511Z,11.20
2019-04-21T02:34:52.872Z,11.20
2019-04-21T02:42:37.775Z,11.00
2019-04-21T02:45:09.489Z,11.00
2019-04-21T02:47:50.689Z,10.90
2019-04-21T02:50:24.291Z,10.90
2019-04-21T02:52:52.909Z,10.90
2019-04-21T02:55:21.979Z,10.90
2019-04-21T02:58:09.820Z,10.80
2019-04-21T03:01:14.447Z,10.80
2019-04-21T03:06:18.728Z,10.70
2019-04-21T03:11:20.459Z,10.60
2019-04-21T03:14:05.440Z,10.50
2019-04-21T03:16:31.512Z,10.40
2019-04-21T03:19:25.155Z,10.40
2019-04-21T03:21:52.566Z,10.40
2019-04-21T03:24:17.330Z,10.40
2019-04-21T03:27:09.683Z,10.40
2019-04-21T03:32:54.759Z,10.40
2019-04-21T03:39:50.737Z,10.20
2019-04-21T03:42:42.493Z,10.10
2019-04-21T03:52:58.895Z,10.20
2019-04-21T03:55:50.394Z,10.10
2019-04-21T04:06:44.301Z,10.10
2019-04-21T04:09:26.119Z,10.10
2019-04-21T04:11:50.871Z,10.10
2019-04-21T04:14:35.091Z,10.00
2019-04-21T04:22:16.539Z,10.00
2019-04-21T04:29:59.688Z,9.80
2019-04-21T04:32:28.589Z,9.90
2019-04-21T04:35:14.508Z,10.00
2019-04-21T04:37:47.058Z,10.00
2019-04-21T04:40:23.319Z,10.00
2019-04-21T04:43:19.883Z,10.00
2019-04-21T04:46:06.694Z,10.00
2019-04-21T04:48:28.057Z,10.00
2019-04-21T04:53:40.406Z,10.00
2019-04-21T04:56:13.877Z,10.00
2019-04-21T04:59:10.743Z,10.00
2019-04-21T05:03:56.623Z,10.20
2019-04-21T05:09:43.149Z,10.30
2019-04-21T05:11:55.815Z,10.30
2019-04-21T05:14:30.361Z,10.40
2019-04-21T05:17:17.783Z,10.40
2019-04-21T05:19:56.468Z,10.50
2019-04-21T05:24:43.973Z,10.60
2019-04-21T05:27:52.453Z,10.60
2019-04-21T05:30:40.456Z,10.70
2019-04-21T05:33:37.824Z,10.90
2019-04-21T05:36:38.176Z,10.90
2019-04-21T05:39:18.464Z,11.10
2019-04-21T05:41:49.087Z,11.20
2019-04-21T05:44:41.324Z,11.40
2019-04-21T05:47:20.862Z,11.60
2019-04-21T05:49:50.010Z,11.80
2019-04-21T05:52:27.150Z,12.00
2019-04-21T05:55:10.984Z,12.20
2019-04-21T05:57:43.153Z,12.50
2019-04-21T06:00:21.383Z,12.70
2019-04-21T06:02:53.425Z,12.90
2019-04-21T06:08:02.390Z,13.30
2019-04-21T06:10:43.674Z,13.50
2019-04-21T06:15:50.079Z,13.90
2019-04-21T06:18:27.211Z,14.10
2019-04-21T06:21:01.399Z,14.30
2019-04-21T06:23:33.094Z,14.40
2019-04-21T06:26:19.858Z,14.60
2019-04-21T06:28:46.655Z,14.90
2019-04-21T06:31:42.604Z,15.00
2019-04-21T06:34:06.765Z,15.30
2019-04-21T06:39:10.267Z,15.70
2019-04-21T06:41:38.037Z,15.90
2019-04-21T06:44:18.083Z,16.10
2019-04-21T06:46:48.933Z,16.30
2019-04-21T06:49:28.098Z,16.40
2019-04-21T06:52:07.313Z,16.50
2019-04-21T06:54:44.400Z,16.70
2019-04-21T06:57:18.224Z,16.70
2019-04-21T06:59:43.411Z,16.80
2019-04-21T07:02:37.800Z,16.90
2019-04-21T07:05:03.560Z,17.10
2019-04-21T07:07:35.179Z,17.10
2019-04-21T07:10:10.356Z,17.20
2019-04-21T07:12:42.910Z,17.30
2019-04-21T07:15:19.281Z,17.50
2019-04-21T07:17:54.004Z,17.60
2019-04-21T07:20:21.964Z,17.70
2019-04-21T07:23:01.762Z,17.80
2019-04-21T07:25:42.347Z,18.00
2019-04-21T07:28:12.873Z,18.10
2019-04-21T07:30:48.595Z,18.20
2019-04-21T07:33:41.537Z,18.30
2019-04-21T07:35:55.727Z,18.30
2019-04-21T07:38:28.600Z,18.40
2019-04-21T07:40:58.779Z,18.60
2019-04-21T07:43:32.984Z,18.80
2019-04-21T07:46:06.507Z,19.00
2019-04-21T07:48:50.097Z,19.20
2019-04-21T07:51:47.686Z,19.40
2019-04-21T07:54:25.109Z,19.60
2019-04-21T07:56:39.866Z,19.40
2019-04-21T07:59:41.221Z,19.60
2019-04-21T08:02:01.193Z,19.60
2019-04-21T08:07:15.181Z,19.90
2019-04-21T08:09:47.257Z,20.00
2019-04-21T08:12:16.243Z,20.20
2019-04-21T08:14:57.535Z,20.30
2019-04-21T08:17:30.469Z,20.50
2019-04-21T08:20:10.605Z,20.50
2019-04-21T08:22:46.580Z,20.60
2019-04-21T08:25:18.244Z,20.90
2019-04-21T08:30:32.138Z,20.90
2019-04-21T08:38:16.519Z,21.20
2019-04-21T08:41:01.991Z,21.10
2019-04-21T08:43:30.671Z,21.30
2019-04-21T08:46:13.049Z,21.50
2019-04-21T08:48:28.632Z,21.70
2019-04-21T08:51:26.106Z,21.80
2019-04-21T08:53:49.027Z,22.00
2019-04-21T08:56:21.695Z,22.10
2019-04-21T08:59:31.743Z,22.30
2019-04-21T09:05:14.941Z,22.10
2019-04-21T09:07:55.948Z,22.40
2019-04-21T09:10:22.300Z,22.70
2019-04-21T09:12:51.789Z,22.90
2019-04-21T09:15:31.390Z,23.10
2019-04-21T09:18:05.309Z,23.00
2019-04-21T09:20:47.362Z,23.20
2019-04-21T09:23:18.120Z,23.50
2019-04-21T09:25:55.390Z,23.70
2019-04-21T09:28:19.852Z,23.90
2019-04-21T09:30:48.880Z,24.20
2019-04-21T09:33:16.632Z,24.30
2019-04-21T09:35:56.367Z,24.40
2019-04-21T09:38:32.861Z,24.70
2019-04-21T09:40:59.728Z,25.00
2019-04-21T09:43:40.253Z,25.10
2019-04-21T09:46:08.404Z,25.30
2019-04-21T09:48:49.857Z,25.40
2019-04-21T09:51:17.855Z,25.60
2019-04-21T09:53:58.711Z,25.50
2019-04-21T09:56:34.348Z,25.60
2019-04-21T09:59:09.164Z,25.70
2019-04-21T10:01:50.088Z,25.70
2019-04-21T10:04:12.010Z,25.70
2019-04-21T10:06:45.311Z,25.50
2019-04-21T10:09:21.287Z,25.30
2019-04-21T10:11:54.763Z,25.70
2019-04-21T10:14:28.681Z,25.50
2019-04-21T10:17:23.951Z,24.70
2019-04-21T10:19:57.050Z,25.10
2019-04-21T10:22:30.982Z,26.00
2019-04-21T10:25:06.675Z,26.10
2019-04-21T10:27:40.903Z,26.30
2019-04-21T10:30:14.576Z,26.20
2019-04-21T10:32:48.384Z,26.00
2019-04-21T10:35:24.334Z,26.10
2019-04-21T10:38:10.401Z,26.40
2019-04-21T10:40:33.564Z,26.50
2019-04-21T10:43:09.069Z,26.60
2019-04-21T10:45:41.472Z,26.60
2019-04-21T10:48:14.696Z,26.60
2019-04-21T10:50:47.622Z,26.80
2019-04-21T10:53:24.816Z,27.10
2019-04-21T10:56:11.486Z,27.40
2019-04-21T10:58:42.285Z,27.70
2019-04-21T11:01:23.048Z,27.30
2019-04-21T11:04:27.263Z,27.30
2019-04-21T11:07:04.311Z,27.50
2019-04-21T11:09:31.857Z,27.60
2019-04-21T11:12:06.259Z,27.70
2019-04-21T11:14:39.277Z,28.20
2019-04-21T11:17:12.343Z,28.10
2019-04-21T11:19:46.442Z,28.10
2019-04-21T11:22:20.831Z,28.00
2019-04-21T11:24:53.882Z,28.10
2019-04-21T11:27:26.878Z,28.20
2019-04-21T11:29:59.842Z,28.10
2019-04-21T11:32:32.874Z,28.40
2019-04-21T11:35:05.621Z,28.50
2019-04-21T11:37:38.476Z,28.50
2019-04-21T11:43:01.993Z,28.50
2019-04-21T11:45:36.637Z,28.60
2019-04-21T11:48:18.452Z,28.50
2019-04-21T11:50:51.421Z,28.60
2019-04-21T11:53:25.234Z,28.90
2019-04-21T11:55:58.766Z,29.10
2019-04-21T11:58:31.991Z,29.20
2019-04-21T12:01:05.674Z,29.00
2019-04-21T12:03:39.949Z,28.60
2019-04-21T12:06:13.436Z,28.20
2019-04-21T12:08:49.915Z,28.20
2019-04-21T12:11:29.392Z,28.20
2019-04-21T12:14:03.682Z,28.60
2019-04-21T12:16:37.067Z,29.00
2019-04-21T12:19:10.106Z,29.70
2019-04-21T12:21:54.677Z,30.10
2019-04-21T12:24:19.157Z,29.30
2019-04-21T12:26:52.316Z,29.60
2019-04-21T12:29:25.365Z,30.00
2019-04-21T12:32:22.116Z,30.10
2019-04-21T12:34:55.778Z,29.90
2019-04-21T12:37:29.151Z,28.60
2019-04-21T12:40:03.303Z,28.90
2019-04-21T12:42:38.907Z,29.00
2019-04-21T12:45:12.996Z,29.20
2019-04-21T12:47:48.399Z,28.80
2019-04-21T12:50:21.475Z,29.50
2019-04-21T12:52:55.763Z,29.00
2019-04-21T12:55:31.524Z,29.00
2019-04-21T12:58:03.716Z,29.50
2019-04-21T13:00:36.847Z,30.10
2019-04-21T13:03:10.069Z,30.30
2019-04-21T13:05:43.421Z,29.90
2019-04-21T13:08:17.567Z,29.80
2019-04-21T13:10:51.988Z,30.30
2019-04-21T13:13:26.173Z,30.60
2019-04-21T13:15:59.342Z,30.50
2019-04-21T13:18:33.239Z,30.60
2019-04-21T13:21:07.263Z,30.70
2019-04-21T13:23:41.135Z,30.50
2019-04-21T13:26:16.134Z,30.90
2019-04-21T13:28:50.014Z,31.10
2019-04-21T13:31:24.472Z,31.50
2019-04-21T13:33:57.892Z,31.30
2019-04-21T13:36:31.770Z,31.20
2019-04-21T13:39:50.401Z,31.30
2019-04-21T13:42:11.007Z,31.30
2019-04-21T13:44:37.093Z,30.70
2019-04-21T13:47:10.541Z,30.90
2019-04-21T13:49:45.445Z,31.20
2019-04-21T13:52:18.652Z,31.20
2019-04-21T13:54:51.614Z,31.70
2019-04-21T13:57:26.209Z,32.00
2019-04-21T13:59:59.613Z,31.80
2019-04-21T14:02:32.690Z,31.20
2019-04-21T14:05:11.490Z,31.40
2019-04-21T14:07:44.022Z,31.70
2019-04-21T14:10:17.922Z,31.60
2019-04-21T14:12:51.338Z,32.00
2019-04-21T14:15:24.268Z,31.40
2019-04-21T14:17:58.367Z,31.80
2019-04-21T14:20:31.379Z,32.50
2019-04-21T14:23:15.839Z,31.70
2019-04-21T14:25:39.579Z,31.10
2019-04-21T14:28:12.754Z,31.40
2019-04-21T14:30:46.150Z,31.70
2019-04-21T14:33:20.483Z,32.20
2019-04-21T14:35:54.768Z,32.30
2019-04-21T14:38:28.913Z,31.40
2019-04-21T14:41:02.152Z,31.00
2019-04-21T14:43:36.196Z,31.20
2019-04-21T14:46:25.477Z,31.60
2019-04-21T14:49:11.129Z,32.30
2019-04-21T14:51:50.937Z,32.30
2019-04-21T14:54:58.649Z,32.90
2019-04-21T14:57:31.624Z,31.70
2019-04-21T15:00:07.109Z,31.40
2019-04-21T15:02:41.271Z,31.40
2019-04-21T15:05:15.594Z,31.70
2019-04-21T15:07:49.018Z,32.20
2019-04-21T15:10:25.573Z,32.60
2019-04-21T15:12:56.570Z,32.40
2019-04-21T15:15:29.966Z,33.10
2019-04-21T15:18:03.929Z,33.30
2019-04-21T15:20:38.377Z,33.50
2019-04-21T15:23:12.454Z,33.00
2019-04-21T15:25:46.053Z,32.90
2019-04-21T15:28:20.094Z,32.50
2019-04-21T15:30:54.403Z,32.60
2019-04-21T15:33:28.600Z,32.10
2019-04-21T15:36:02.927Z,32.60
2019-04-21T15:38:35.969Z,33.20
2019-04-21T15:41:10.844Z,33.50
2019-04-21T15:43:44.720Z,33.30
2019-04-21T15:46:18.479Z,32.70
2019-04-21T15:48:51.315Z,33.40
2019-04-21T15:51:24.130Z,33.80
2019-04-21T15:53:57.603Z,33.70
2019-04-21T15:56:47.210Z,32.60
2019-04-21T15:59:46.575Z,33.00
2019-04-21T16:02:38.045Z,33.30
2019-04-21T16:05:13.015Z,33.20
2019-04-21T16:07:47.918Z,32.40
2019-04-21T16:10:31.006Z,32.00
2019-04-21T16:12:56.056Z,32.10
2019-04-21T16:15:30.291Z,31.90
2019-04-21T16:18:03.701Z,32.10
2019-04-21T16:20:37.655Z,32.00
2019-04-21T16:23:10.791Z,31.50
2019-04-21T16:25:44.406Z,30.60
2019-04-21T16:28:17.577Z,29.50
2019-04-21T16:30:52.123Z,29.00
2019-04-21T16:33:25.231Z,28.20
2019-04-21T16:35:58.106Z,27.80
2019-04-21T16:38:31.474Z,27.70
2019-04-21T16:41:08.596Z,27.40
2019-04-21T16:43:40.912Z,27.80
2019-04-21T16:46:15.710Z,27.70
2019-04-21T16:48:49.681Z,27.40
2019-04-21T16:51:23.961Z,27.00
2019-04-21T16:54:01.922Z,26.80
2019-04-21T16:56:54.001Z,26.50
2019-04-21T16:59:33.002Z,26.20
2019-04-21T17:02:07.047Z,26.10
2019-04-21T17:04:40.288Z,26.10
2019-04-21T17:07:14.902Z,26.10
2019-04-21T17:09:48.611Z,26.20
2019-04-21T17:12:22.743Z,26.20
2019-04-21T17:15:10.861Z,25.90
2019-04-21T17:17:50.027Z,26.00
2019-04-21T17:20:24.411Z,26.20
2019-04-21T17:22:41.761Z,25.90
2019-04-21T17:25:16.132Z,25.70
2019-04-21T17:27:51.369Z,25.50
2019-04-21T17:30:24.628Z,25.50
2019-04-21T17:32:57.486Z,25.40
2019-04-21T17:35:31.174Z,25.40
2019-04-21T17:38:04.144Z,25.20
2019-04-21T17:40:37.889Z,25.00
2019-04-21T17:43:14.768Z,25.00
2019-04-21T17:45:46.566Z,25.10
2019-04-21T17:48:21.453Z,25.50
2019-04-21T17:51:21.325Z,25.80
2019-04-21T17:54:13.634Z,25.70
2019-04-21T17:57:04.571Z,25.50
2019-04-21T17:59:51.245Z,25.20
2019-04-21T18:02:07.945Z,24.70
2019-04-21T18:04:56.702Z,24.40
2019-04-21T18:07:29.077Z,24.00
2019-04-21T18:10:04.358Z,23.80
2019-04-21T18:12:33.739Z,23.60
2019-04-21T18:15:02.170Z,23.40
2019-04-21T18:17:27.202Z,23.20
2019-04-21T18:20:01.663Z,23.00
2019-04-21T18:22:58.568Z,22.90
2019-04-21T18:25:43.937Z,22.80
2019-04-21T18:28:06.391Z,22.60
2019-04-21T18:30:54.179Z,22.40
2019-04-21T18:33:31.808Z,22.30
2019-04-21T18:36:35.493Z,22.20
2019-04-21T18:39:33.931Z,22.00
2019-04-21T18:42:17.131Z,21.90
2019-04-21T18:45:34.458Z,21.80
2019-04-21T18:47:59.630Z,21.60
2019-04-21T18:50:46.226Z,21.50
2019-04-21T18:53:32.690Z,21.40
2019-04-21T18:55:58.289Z,21.30
2019-04-21T18:58:26.861Z,21.20
2019-04-21T19:01:07.548Z,21.10
2019-04-21T19:03:41.067Z,21.00
2019-04-21T19:06:16.449Z,20.90
2019-04-21T19:09:03.847Z,20.80
2019-04-21T19:11:33.213Z,20.70
2019-04-21T19:14:28.582Z,20.60
2019-04-21T19:17:04.457Z,20.60
2019-04-21T19:22:04.794Z,20.40
2019-04-21T19:24:33.252Z,20.30
2019-04-21T19:29:52.216Z,20.20
2019-04-21T19:34:40.673Z,20.00
2019-04-21T19:37:17.104Z,20.00
2019-04-21T19:39:57.931Z,19.80
2019-04-21T19:42:32.354Z,19.80
2019-04-21T19:45:15.101Z,19.70
2019-04-21T19:47:48.629Z,19.60
2019-04-21T19:50:28.662Z,19.60
2019-04-21T19:52:53.453Z,19.50
2019-04-21T19:55:18.127Z,19.40
2019-04-21T19:57:52.706Z,19.30
2019-04-21T20:00:26.656Z,19.30
2019-04-21T20:03:00.810Z,19.20
2019-04-21T20:05:43.021Z,19.20
2019-04-21T20:08:23.698Z,19.20
2019-04-21T20:11:01.166Z,19.10
2019-04-21T20:13:48.870Z,19.00
2019-04-21T20:16:12.877Z,19.00
2019-04-21T20:18:37.881Z,18.90
2019-04-21T20:21:03.909Z,18.80
2019-04-21T20:23:39.512Z,18.80
2019-04-21T20:26:13.672Z,18.80
2019-04-21T20:28:56.612Z,18.70
2019-04-21T20:31:44.567Z,18.60
2019-04-21T20:34:25.043Z,18.50
2019-04-21T20:36:56.707Z,18.40
2019-04-21T20:39:13.144Z,18.30
2019-04-21T20:41:53.991Z,18.20
2019-04-21T20:44:37.370Z,18.20
2019-04-21T20:47:05.085Z,18.00
2019-04-21T20:49:35.241Z,18.00
2019-04-21T20:52:23.954Z,17.90
2019-04-21T20:54:49.380Z,17.80
2019-04-21T20:57:25.332Z,17.80
2019-04-21T21:00:07.402Z,17.70
2019-04-21T21:02:42.802Z,17.80
2019-04-21T21:05:04.949Z,17.70
2019-04-21T21:07:50.222Z,17.70
2019-04-21T21:10:20.889Z,17.60
2019-04-21T21:13:10.497Z,17.60
2019-04-21T21:15:29.233Z,17.50
2019-04-21T21:18:15.943Z,17.50
2019-04-21T21:20:43.661Z,17.40
2019-04-21T21:23:11.816Z,17.40
2019-04-21T21:25:54.480Z,17.40
2019-04-21T21:28:24.476Z,17.40
2019-04-21T21:31:02.513Z,17.50
2019-04-21T21:33:39.951Z,17.50
2019-04-21T21:36:13.422Z,17.50
2019-04-21T21:38:49.721Z,17.50
2019-04-21T21:41:13.827Z,17.50
2019-04-21T21:43:39.450Z,17.50
2019-04-21T21:46:28.668Z,17.50
2019-04-21T21:49:00.859Z,17.50
2019-04-21T21:51:38.443Z,17.70
2019-04-21T21:53:57.118Z,17.70
2019-04-21T21:56:30.202Z,17.70
2019-04-21T21:59:10.590Z,17.80
2019-04-21T22:01:44.087Z,17.80
2019-04-21T22:04:18.945Z,17.90
2019-04-21T22:06:57.565Z,17.80
2019-04-21T22:09:24.087Z,17.90
2019-04-21T22:12:01.355Z,17.90
2019-04-21T22:14:39.091Z,18.00
2019-04-21T22:17:21.774Z,17.90
2019-04-21T22:20:02.973Z,17.90
2019-04-21T22:22:34.149Z,17.80
2019-04-21T22:25:03.128Z,17.80
2019-04-21T22:27:27.250Z,17.80
2019-04-21T22:30:03.857Z,17.80
2019-04-21T22:32:57.971Z,17.80
2019-04-21T22:35:34.779Z,17.70
2019-04-21T22:38:16.145Z,17.70
2019-04-21T22:40:50.463Z,17.70
2019-04-21T22:43:19.717Z,17.70
2019-04-21T22:45:45.302Z,17.60
2019-04-21T22:48:21.534Z,17.50
2019-04-21T22:50:53.102Z,17.50
2019-04-21T22:53:29.321Z,17.50
2019-04-21T22:56:10.204Z,17.50
2019-04-21T22:58:39.311Z,17.50
2019-04-21T23:01:11.039Z,17.40
2019-04-21T23:03:49.214Z,17.40
2019-04-21T23:06:23.325Z,17.30
2019-04-21T23:08:54.999Z,17.30
2019-04-21T23:11:37.471Z,17.30
2019-04-21T23:14:06.563Z,17.30
2019-04-21T23:16:40.277Z,17.30
2019-04-21T23:19:28.022Z,17.20
2019-04-21T23:22:03.529Z,17.20
2019-04-21T23:24:46.895Z,17.20
2019-04-21T23:27:11.793Z,17.20
2019-04-21T23:30:00.530Z,17.20
2019-04-21T23:32:19.935Z,17.10
2019-04-21T23:34:43.810Z,17.10
2019-04-21T23:37:21.504Z,17.00
2019-04-21T23:39:59.644Z,17.00
2019-04-21T23:42:31.880Z,16.90
2019-04-21T23:45:03.164Z,16.90
2019-04-21T23:47:46.779Z,16.90
2019-04-21T23:50:29.485Z,16.90
2019-04-21T23:52:47.783Z,16.80
2019-04-21T23:55:21.086Z,16.80
2019-04-21T23:58:05.012Z,16.70
